Time;durP1;ratioP1;P1;durP2;ratioP2;P2;SDS_P1;SDS_P2;PMS_P1;PMS_P2;Temp;Humidity;BMP_temperature;BMP_pressure;BME280_temperature;BME280_humidity;BME280_pressure;Samples;Min_cycle;Max_cycle;Signal;HPM_P1;HPM_P2
2022/12/05 00:01:37;;;;;;;175.52;45.85;;;3.20;99.90;;;1.55;100.00;101702.91;5007564;28;20495;-84
2022/12/05 00:04:17;;;;;;;192.68;46.88;;;3.20;99.90;;;1.53;100.00;101709.81;4982593;28;20037;-84
2022/12/05 00:06:43;;;;;;;186.57;48.28;;;3.20;99.90;;;1.53;100.00;101704.63;5006688;28;20114;-85
2022/12/05 00:09:13;;;;;;;176.75;47.60;;;3.30;99.90;;;1.61;100.00;101703.81;5030533;23;20129;-81
2022/12/05 00:11:44;;;;;;;191.52;47.13;;;3.20;99.90;;;1.61;100.00;101716.78;5049828;28;20129;-81
2022/12/05 00:14:11;;;;;;;199.60;51.15;;;3.30;99.90;;;1.68;100.00;101724.63;5035191;28;20060;-80
2022/12/05 00:16:45;;;;;;;191.32;49.45;;;3.20;99.90;;;1.56;100.00;101710.72;5036705;28;20037;-81
2022/12/05 00:19:14;;;;;;;189.60;49.25;;;3.30;99.90;;;1.67;100.00;101712.53;5026926;28;20072;-80
2022/12/05 00:21:41;;;;;;;162.60;42.17;;;3.20;99.90;;;1.43;100.00;101712.38;5015223;28;20505;-81
2022/12/05 00:24:19;;;;;;;196.98;52.53;;;3.20;99.90;;;1.58;100.00;101708.13;5013680;28;20041;-81
2022/12/05 00:26:45;;;;;;;195.25;49.55;;;3.20;99.90;;;1.57;100.00;101706.38;5027975;28;20040;-80
2022/12/05 00:29:13;;;;;;;186.20;42.92;;;3.20;99.90;;;1.49;100.00;101702.88;5023706;28;20029;-81
2022/12/05 00:31:42;;;;;;;180.02;45.88;;;3.20;99.90;;;1.50;100.00;101702.03;4999027;28;20026;-80
2022/12/05 00:34:08;;;;;;;185.63;46.53;;;3.20;99.90;;;1.53;100.00;101705.50;4995367;28;20126;-81
2022/12/05 00:36:35;;;;;;;206.15;49.60;;;3.20;99.90;;;1.49;100.00;101705.47;5012461;28;20044;-81
2022/12/05 00:39:13;;;;;;;201.02;52.08;;;3.30;99.90;;;1.65;100.00;101707.31;5020551;23;20048;-80
2022/12/05 00:41:38;;;;;;;190.43;46.88;;;3.30;99.90;;;1.66;100.00;101693.44;5015124;28;20042;-82
2022/12/05 00:44:05;;;;;;;150.35;37.47;;;3.20;99.90;;;1.51;100.00;101688.16;4992969;28;20116;-83
2022/12/05 00:46:42;;;;;;;187.85;47.95;;;3.20;99.90;;;1.52;100.00;101702.91;5011054;28;20026;-83
2022/12/05 00:49:09;;;;;;;196.40;47.90;;;3.20;99.90;;;1.53;100.00;101694.25;4997151;28;20614;-83
2022/12/05 00:51:42;;;;;;;161.90;39.28;;;3.30;99.90;;;1.55;100.00;101690.78;5015624;28;20041;-85
2022/12/05 00:54:15;;;;;;;208.48;50.35;;;3.20;99.90;;;1.56;100.00;101696.88;5006771;28;20033;-82
2022/12/05 00:56:46;;;;;;;196.48;50.25;;;3.20;99.90;;;1.59;100.00;101699.47;5018699;28;20495;-83
2022/12/05 00:59:16;;;;;;;218.25;49.97;;;3.30;99.90;;;1.60;100.00;101693.44;4995835;28;20050;-83
2022/12/05 01:01:52;;;;;;;175.45;42.20;;;3.30;99.90;;;1.61;100.00;101697.75;4999606;28;20486;-83
2022/12/05 01:04:20;;;;;;;;;;;3.30;99.90;;;1.42;100.00;101701.97;5020895;28;20545;-83
2022/12/05 01:06:55;;;;;;;193.02;47.50;;;3.20;99.90;;;1.53;100.00;101707.22;5020468;28;20575;-83
2022/12/05 01:09:21;;;;;;;169.30;43.70;;;3.20;99.90;;;1.48;100.00;101702.00;5021618;28;20034;-83
2022/12/05 01:11:48;;;;;;;172.38;45.30;;;3.20;99.90;;;1.46;100.00;101695.94;4996883;28;20049;-83
2022/12/05 01:14:20;;;;;;;193.80;46.47;;;3.20;99.90;;;1.46;100.00;101698.53;5018941;28;20033;-83
2022/12/05 01:16:50;;;;;;;173.60;46.20;;;3.10;99.90;;;1.41;100.00;101693.31;5015774;28;20005;-83
2022/12/05 01:19:29;;;;;;;183.32;46.70;;;3.20;99.90;;;1.56;100.00;101694.28;5018188;28;20027;-84
2022/12/05 01:21:58;;;;;;;166.85;44.65;;;3.10;99.90;;;1.40;100.00;101695.88;4996095;28;20075;-83
2022/12/05 01:24:30;;;;;;;158.13;44.28;;;3.20;99.90;;;1.53;100.00;101695.09;4997071;28;20037;-83
2022/12/05 01:26:56;;;;;;;146.57;42.78;;;3.20;99.90;;;1.48;100.00;101690.75;4999926;28;20042;-83
2022/12/05 01:29:23;;;;;;;170.00;44.75;;;3.20;99.90;;;1.54;100.00;101683.88;5001409;28;20037;-82
2022/12/05 01:31:49;;;;;;;160.95;44.50;;;3.20;99.90;;;1.45;100.00;101678.63;5017658;28;20182;-84
2022/12/05 01:34:22;;;;;;;150.90;42.55;;;3.20;99.90;;;1.53;100.00;101683.88;4984891;28;20015;-83
2022/12/05 01:36:48;;;;;;;145.82;42.78;;;3.30;99.90;;;1.57;100.00;101675.22;4996887;28;20049;-85
2022/12/05 01:39:14;;;;;;;146.18;41.50;;;3.20;99.90;;;1.42;100.00;101670.81;5004622;28;20033;-83
2022/12/05 01:41:51;;;;;;;150.60;43.42;;;3.20;99.90;;;1.54;100.00;101675.22;5026843;28;20038;-82
2022/12/05 01:44:17;;;;;;;142.70;42.05;;;3.20;99.90;;;1.47;100.00;101678.63;4997565;28;20030;-84
2022/12/05 01:46:47;;;;;;;140.93;44.47;;;3.10;99.90;;;1.48;100.00;101672.59;5012584;28;20137;-82
2022/12/05 01:49:20;;;;;;;147.82;43.75;;;3.20;99.90;;;1.55;100.00;101672.63;5011349;28;20406;-83
2022/12/05 01:51:55;;;;;;;125.82;39.53;;;3.30;99.90;;;1.61;100.00;101677.00;4997514;28;20054;-83
2022/12/05 01:54:22;;;;;;;141.77;43.47;;;3.20;99.90;;;1.47;100.00;101679.53;5017381;28;20099;-82
2022/12/05 01:57:05;;;;;;;137.82;42.22;;;3.10;99.90;;;1.46;100.00;101682.09;5015792;28;20026;-84
2022/12/05 01:59:48;;;;;;;115.22;37.40;;;3.20;99.90;;;1.55;100.00;101680.41;4985280;28;20395;-83
2022/12/05 02:02:14;;;;;;;137.43;42.90;;;3.20;99.90;;;1.58;100.00;101684.78;4990903;28;20027;-84
2022/12/05 02:05:21;;;;;;;133.80;40.90;;;3.20;99.90;;;1.52;100.00;101671.75;5027996;28;20045;-84
2022/12/05 02:07:47;;;;;;;122.78;36.97;;;3.20;99.90;;;1.50;100.00;101673.47;4968383;28;20034;-84
2022/12/05 02:10:14;;;;;;;131.65;40.25;;;3.20;99.90;;;1.55;100.00;101669.16;5013213;28;20041;-83
2022/12/05 02:12:45;;;;;;;132.93;41.75;;;3.20;99.90;;;1.63;100.00;101681.31;4995552;28;20030;-83
2022/12/05 02:15:44;;;;;;;136.43;42.35;;;3.30;99.90;;;1.68;100.00;101681.34;5019122;28;20040;-83
2022/12/05 02:19:01;;;;;;;129.20;39.60;;;3.30;99.90;;;1.60;100.00;101673.53;5023020;28;20033;-82
2022/12/05 02:21:59;;;;;;;131.27;40.70;;;3.20;99.90;;;1.58;100.00;101671.78;5008994;28;21201;-84
2022/12/05 02:25:24;;;;;;;131.90;40.28;;;3.20;99.90;;;1.61;100.00;101667.47;4992810;28;20065;-84
2022/12/05 02:28:46;;;;;;;135.48;40.30;;;3.20;99.90;;;1.57;100.00;101664.84;5006525;28;20474;-82
2022/12/05 02:32:05;;;;;;;144.82;41.72;;;3.20;99.90;;;1.61;100.00;101661.41;5011408;28;20053;-82
2022/12/05 02:34:38;;;;;;;142.43;43.70;;;3.20;99.90;;;1.60;100.00;101659.69;4954555;28;20129;-82
2022/12/05 02:37:18;;;;;;;161.70;44.40;;;3.30;99.90;;;1.69;100.00;101657.13;5033876;28;20076;-83
2022/12/05 02:40:04;;;;;;;157.20;45.90;;;3.30;99.90;;;1.59;100.00;101657.94;5015888;28;20041;-82
2022/12/05 02:42:59;;;;;;;149.98;44.50;;;3.30;99.90;;;1.74;100.00;101654.56;5016303;28;20034;-83
2022/12/05 02:45:33;;;;;;;159.57;45.58;;;3.30;99.90;;;1.66;100.00;101653.66;5012782;28;20090;-83
2022/12/05 02:48:00;;;;;;;150.23;44.90;;;3.20;99.90;;;1.50;100.00;101650.97;4998055;28;20030;-82
2022/12/05 02:50:42;;;;;;;154.90;46.03;;;3.30;99.90;;;1.64;100.00;101648.44;5014120;28;20089;-84
2022/12/05 02:53:17;;;;;;;173.18;50.25;;;3.30;99.90;;;1.62;100.00;101647.56;5029838;28;20022;-84
2022/12/05 02:55:44;;;;;;;176.65;48.38;;;3.30;99.90;;;1.65;100.00;101639.81;5017827;28;20090;-83
2022/12/05 02:58:54;;;;;;;170.30;48.83;;;3.30;99.90;;;1.72;100.00;101641.56;5012188;28;20048;-83
2022/12/05 03:01:27;;;;;;;174.88;49.65;;;3.30;99.90;;;1.68;100.00;101646.75;4989013;28;20025;-83
2022/12/05 03:03:59;;;;;;;149.07;37.72;;;3.30;99.90;;;1.67;100.00;101640.69;5034575;28;20061;-83
2022/12/05 03:06:45;;;;;;;163.68;46.17;;;3.30;99.90;;;1.71;100.00;101652.81;4987813;28;20055;-83
2022/12/05 03:09:23;;;;;;;163.25;45.10;;;3.40;99.90;;;1.77;100.00;101647.66;5000633;28;20042;-83
2022/12/05 03:12:04;;;;;;;164.88;44.70;;;3.40;99.90;;;1.73;100.00;101648.50;4997477;28;20084;-84
2022/12/05 03:15:00;;;;;;;174.35;46.65;;;3.40;99.90;;;1.73;100.00;101647.63;5027561;28;20108;-83
2022/12/05 03:17:36;;;;;;;167.35;46.90;;;3.40;99.90;;;1.74;100.00;101639.84;5009947;28;20033;-83
2022/12/05 03:20:14;;;;;;;147.27;41.33;;;3.30;99.90;;;1.51;100.00;101628.47;5014070;28;20048;-83
2022/12/05 03:22:56;;;;;;;164.70;44.38;;;3.30;99.90;;;1.53;100.00;101632.81;5007405;28;20090;-84
2022/12/05 03:25:36;;;;;;;157.68;45.03;;;3.30;99.90;;;1.59;100.00;101626.78;5014698;28;20033;-83
2022/12/05 03:28:14;;;;;;;147.05;41.20;;;3.20;99.90;;;1.48;100.00;101624.13;5016407;28;20029;-83
2022/12/05 03:30:41;;;;;;;153.73;42.80;;;3.20;99.90;;;1.54;100.00;101633.69;5001763;28;20415;-84
2022/12/05 03:33:22;;;;;;;146.77;43.03;;;3.20;99.90;;;1.50;100.00;101630.22;5026422;28;20390;-83
2022/12/05 03:36:06;;;;;;;142.77;43.08;;;3.20;99.90;;;1.58;100.00;101625.94;4995073;28;20036;-84
2022/12/05 03:38:55;;;;;;;113.80;31.33;;;3.30;99.90;;;1.55;100.00;101625.91;4996542;28;20438;-84
2022/12/05 03:41:37;;;;;;;132.93;40.78;;;3.30;99.90;;;1.59;100.00;101626.78;4997787;28;20543;-84
2022/12/05 03:44:34;;;;;;;149.30;43.78;;;3.30;99.90;;;1.64;100.00;101622.47;5011793;28;20048;-84
2022/12/05 03:47:31;;;;;;;73.90;20.88;;;3.30;99.90;;;1.57;100.00;101618.13;4993356;28;20041;-83
2022/12/05 03:50:05;;;;;;;;;;;3.30;99.90;;;1.44;100.00;101622.38;5013777;28;20033;-84
2022/12/05 03:52:46;;;;;;;132.88;40.72;;;3.20;99.90;;;1.36;100.00;101622.38;4984259;28;19925;-84
2022/12/05 03:55:13;;;;;;;146.80;42.20;;;3.20;99.90;;;1.45;100.00;101621.53;5013381;28;20394;-84
2022/12/05 03:57:52;;;;;;;148.13;44.83;;;3.20;99.90;;;1.49;100.00;101627.59;5013509;28;20496;-83
2022/12/05 04:00:22;;;;;;;144.63;42.97;;;3.20;99.90;;;1.48;100.00;101625.88;5014620;28;20026;-84
2022/12/05 04:03:26;;;;;;;153.85;43.92;;;3.20;99.90;;;1.47;100.00;101626.72;5019580;28;20141;-85
2022/12/05 04:05:58;;;;;;;144.10;42.25;;;3.20;99.90;;;1.50;100.00;101632.81;4998485;28;20113;-84
2022/12/05 04:08:42;;;;;;;138.18;42.72;;;3.10;99.90;;;1.32;100.00;101620.59;5013511;28;20034;-84
2022/12/05 04:11:29;;;;;;;142.15;41.63;;;3.10;99.90;;;1.43;100.00;101626.72;5012100;28;20033;-84
2022/12/05 04:14:12;;;;;;;151.85;43.88;;;3.10;99.90;;;1.40;100.00;101631.91;5012880;28;20063;-84
2022/12/05 04:17:02;;;;;;;135.45;42.33;;;3.10;99.90;;;1.28;100.00;101624.03;5012711;28;20026;-85
2022/12/05 04:22:25;;;;;;;143.90;43.33;;;3.00;99.90;;;1.27;100.00;101618.81;4996595;28;20422;-83
2022/12/05 04:27:58;;;;;;;;;;;3.60;99.90;;;1.30;100.00;101614.53;5015317;28;20109;-86
2022/12/05 04:30:42;;;;;;;174.93;45.15;;;3.00;99.90;;;1.21;100.00;101619.69;4995994;28;19916;-83
2022/12/05 04:33:39;;;;;;;190.00;46.78;;;3.00;99.90;;;1.29;100.00;101619.72;4995029;28;20089;-84
2022/12/05 04:36:20;;;;;;;202.23;50.97;;;3.00;99.90;;;1.37;100.00;101631.00;5025348;28;20038;-85
2022/12/05 04:39:45;;;;;;;199.55;49.28;;;3.10;99.90;;;1.43;100.00;101634.50;5013068;28;20450;-84
2022/12/05 04:42:26;;;;;;;194.93;48.58;;;3.10;99.90;;;1.42;100.00;101631.88;4991606;28;20042;-85
2022/12/05 04:45:09;;;;;;;203.50;49.25;;;3.10;99.90;;;1.43;100.00;101631.03;5016880;28;20025;-85
2022/12/05 04:47:49;;;;;;;191.98;48.17;;;3.10;99.90;;;1.39;100.00;101629.28;4997794;28;20088;-84
2022/12/05 04:50:25;;;;;;;197.35;51.17;;;3.10;99.90;;;1.41;100.00;101638.81;4997681;28;20046;-84
2022/12/05 04:52:54;;;;;;;;;;;3.10;99.90;;;1.40;100.00;101636.19;4999820;28;20165;-84
2022/12/05 04:55:40;;;;;;;169.38;47.13;;;3.10;99.90;;;1.38;100.00;101636.22;5020676;28;20508;-85
2022/12/05 04:58:13;;;;;;;;;;;3.10;99.90;;;1.25;100.00;101638.72;5000579;28;20042;-84
2022/12/05 05:01:06;;;;;;;218.93;50.08;;;3.00;99.90;;;1.29;100.00;101643.06;5002769;28;19956;-84
2022/12/05 05:04:01;;;;;;;215.30;49.10;;;3.00;99.90;;;1.26;100.00;101643.06;4983888;28;20039;-86
2022/12/05 05:06:27;;;;;;;236.93;52.90;;;3.00;99.90;;;1.26;100.00;101640.47;4984690;28;20030;-85
2022/12/05 05:09:05;;;;;;;240.90;49.53;;;3.00;99.90;;;1.26;100.00;101641.31;4999724;28;20493;-85
2022/12/05 05:11:35;;;;;;;262.35;53.58;;;3.00;99.90;;;1.19;100.00;101642.16;5015178;28;20034;-85
2022/12/05 05:14:05;;;;;;;235.52;52.72;;;2.90;99.90;;;1.25;100.00;101636.97;5035606;28;20029;-86
2022/12/05 05:16:38;;;;;;;246.43;54.42;;;2.90;99.90;;;1.17;100.00;101638.69;4997134;28;20457;-83
2022/12/05 05:19:09;;;;;;;259.80;57.72;;;2.90;99.90;;;1.22;100.00;101642.16;5002854;28;20528;-85
2022/12/05 05:21:39;;;;;;;280.55;57.13;;;2.90;99.90;;;1.19;100.00;101630.03;4997814;28;20033;-85
2022/12/05 05:24:07;;;;;;;248.30;56.38;;;2.90;99.90;;;1.28;100.00;101626.63;5014280;28;20433;-84
2022/12/05 05:26:40;;;;;;;245.25;46.08;;;3.00;99.90;;;1.24;100.00;101632.66;5030802;28;20383;-85
2022/12/05 05:29:06;;;;;;;278.13;54.88;;;2.90;99.90;;;1.17;100.00;101623.97;5001174;28;20030;-85
2022/12/05 05:31:32;;;;;;;305.45;60.33;;;2.90;99.90;;;1.14;100.00;101615.28;4980310;28;20509;-84
2022/12/05 05:33:58;;;;;;;307.40;56.35;;;2.90;99.90;;;1.24;100.00;101619.69;5018362;28;20141;-85
2022/12/05 05:36:30;;;;;;;334.10;59.83;;;;;;;1.16;100.00;101616.16;5000484;28;20486;-85
2022/12/05 05:38:59;;;;;;;290.23;58.88;;;2.90;99.90;;;1.32;100.00;101617.13;5000703;28;20042;-85
2022/12/05 05:41:35;;;;;;;282.73;58.42;;;2.90;99.90;;;1.22;100.00;101626.59;5019281;28;20551;-85
2022/12/05 05:44:02;;;;;;;276.13;57.92;;;2.90;99.90;;;1.28;100.00;101621.44;5016475;28;20048;-84
2022/12/05 05:46:38;;;;;;;242.80;55.00;;;2.90;99.90;;;1.27;100.00;101624.03;5019602;28;20066;-85
2022/12/05 05:49:04;;;;;;;222.98;53.72;;;2.90;99.90;;;1.20;100.00;101623.97;5001067;28;20026;-85
2022/12/05 05:51:31;;;;;;;209.75;51.58;;;2.90;99.90;;;1.28;100.00;101621.44;5001152;28;20026;-85
2022/12/05 05:53:58;;;;;;;190.93;48.30;;;2.90;99.90;;;1.16;100.00;101624.81;5001318;28;20025;-84
2022/12/05 05:56:32;;;;;;;192.40;49.85;;;2.90;99.90;;;1.15;100.00;101620.50;4995985;28;20022;-84
2022/12/05 05:59:01;;;;;;;186.13;48.03;;;2.90;99.90;;;1.16;100.00;101617.03;4994410;28;20034;-85
2022/12/05 06:01:36;;;;;;;194.32;49.05;;;2.90;99.90;;;1.19;100.00;101618.78;5015438;28;20054;-85
2022/12/05 06:04:02;;;;;;;175.98;48.03;;;2.90;99.90;;;1.24;100.00;101624.88;5024159;28;20087;-83
2022/12/05 06:06:28;;;;;;;196.98;49.13;;;2.90;99.90;;;1.23;100.00;101618.81;4996284;28;20034;-85
2022/12/05 06:08:54;;;;;;;173.70;42.55;;;2.90;99.90;;;1.13;100.00;101626.53;5012463;28;20033;-85
2022/12/05 06:11:28;;;;;;;183.20;50.13;;;2.90;99.90;;;1.29;100.00;101628.34;4981853;28;20032;-85
2022/12/05 06:14:06;;;;;;;;;;;;;;;;;;;;;
2022/12/05 06:16:32;;;;;;;239.43;61.47;;;3.00;99.90;;;1.33;100.00;101627.50;5017348;28;20117;-84
2022/12/05 06:18:58;;;;;;;194.38;49.65;;;3.00;99.90;;;1.27;100.00;101631.81;5015210;28;20454;-84
2022/12/05 06:21:24;;;;;;;201.73;50.50;;;2.90;99.90;;;1.14;100.00;101629.13;5013523;23;20087;-85
2022/12/05 06:23:50;;;;;;;186.07;45.30;;;2.90;99.90;;;1.18;100.00;101630.03;5013777;28;20116;-84
2022/12/05 06:26:26;;;;;;;193.95;50.05;;;2.90;99.90;;;1.22;100.00;101631.78;4998180;28;20021;-84
2022/12/05 06:28:52;;;;;;;200.60;51.17;;;2.90;99.90;;;1.19;100.00;101626.59;5002343;28;20025;-84
2022/12/05 06:31:29;;;;;;;144.98;35.92;;;2.90;99.90;;;1.18;100.00;101630.03;4996963;28;20033;-85
2022/12/05 06:33:58;;;;;;;173.20;48.30;;;2.90;99.90;;;1.13;100.00;101636.91;5012995;28;20025;-85
2022/12/05 06:36:33;;;;;;;159.80;45.78;;;2.90;99.90;;;1.11;100.00;101633.44;5015071;28;20041;-84
2022/12/05 06:38:59;;;;;;;150.52;41.75;;;2.90;99.90;;;1.12;100.00;101640.34;5026396;28;20055;-85
2022/12/05 06:41:26;;;;;;;149.00;44.05;;;2.90;99.90;;;1.16;100.00;101626.53;5028715;28;20033;-86
2022/12/05 06:43:56;;;;;;;142.93;42.88;;;2.90;99.90;;;1.13;100.00;101632.59;5015540;28;20048;-85
2022/12/05 06:46:24;;;;;;;141.95;42.10;;;2.90;99.90;;;1.16;100.00;101639.50;5020966;28;20481;-85
2022/12/05 06:48:52;;;;;;;117.55;33.17;;;2.90;99.90;;;1.09;100.00;101632.56;5018246;28;20029;-86
2022/12/05 06:51:18;;;;;;;170.07;49.58;;;2.90;99.90;;;1.19;100.00;101639.56;5019084;28;20098;-85
2022/12/05 06:53:49;;;;;;;164.25;47.60;;;2.90;99.90;;;1.23;100.00;101642.16;5010975;28;20064;-84
2022/12/05 06:56:18;;;;;;;173.13;49.40;;;3.00;99.90;;;1.22;100.00;101650.78;5013979;28;20071;-84
2022/12/05 06:58:56;;;;;;;126.90;34.63;;;3.00;99.90;;;1.22;100.00;101657.72;5020789;28;20054;-84
2022/12/05 07:01:39;;;;;;;182.00;51.03;;;2.90;99.90;;;1.26;100.00;101649.09;5038446;28;20036;-84
2022/12/05 07:04:19;;;;;;;172.50;48.60;;;2.90;99.90;;;1.29;100.00;101656.03;5025811;28;20375;-84
2022/12/05 07:06:47;;;;;;;179.90;48.15;;;2.90;99.90;;;1.17;100.00;101651.66;5019874;28;20029;-84
2022/12/05 07:09:17;;;;;;;165.70;44.78;;;2.90;99.90;;;1.26;100.00;101658.63;5018157;28;20042;-83
2022/12/05 07:11:47;;;;;;;157.10;45.45;;;2.90;99.90;;;1.29;100.00;101651.69;5008678;28;20029;-84
2022/12/05 07:14:13;;;;;;;81.55;21.05;;;2.90;99.90;;;1.01;100.00;101648.91;5013891;28;20042;-83
2022/12/05 07:16:39;;;;;;;164.45;46.85;;;2.90;99.90;;;1.19;100.00;101644.75;5006035;28;20252;-85
2022/12/05 07:19:11;;;;;;;169.05;47.10;;;2.90;99.90;;;1.17;100.00;101652.50;5015982;28;20026;-85
2022/12/05 07:21:37;;;;;;;170.25;48.13;;;2.90;99.90;;;1.25;100.00;101641.31;5001573;28;20459;-86
2022/12/05 07:24:03;;;;;;;180.20;47.30;;;2.90;99.90;;;1.22;100.00;101649.94;5016050;28;20116;-83
2022/12/05 07:26:29;;;;;;;181.18;48.13;;;3.00;99.90;;;1.23;100.00;101641.28;5014705;28;20664;-86
2022/12/05 07:29:05;;;;;;;184.02;46.60;;;3.00;99.90;;;1.24;100.00;101640.44;5013748;28;20065;-85
2022/12/05 07:31:32;;;;;;;174.43;46.08;;;2.80;99.90;;;1.09;100.00;101648.13;5006645;28;20029;-83
2022/12/05 07:33:58;;;;;;;169.15;46.95;;;2.90;99.90;;;1.17;100.00;101644.72;5014745;28;20032;-85
2022/12/05 07:36:31;;;;;;;189.95;48.53;;;2.90;99.90;;;1.19;100.00;101649.94;5020212;28;20017;-83
2022/12/05 07:38:58;;;;;;;197.43;48.85;;;2.90;99.90;;;1.21;100.00;101648.22;5008253;28;20402;-85
2022/12/05 07:41:33;;;;;;;181.02;43.10;;;2.90;99.90;;;1.16;100.00;101645.56;5031174;28;20040;-84
2022/12/05 07:43:59;;;;;;;218.55;52.45;;;2.90;99.90;;;1.28;100.00;101631.81;5021825;28;20037;-85
2022/12/05 07:46:27;;;;;;;203.00;48.40;;;2.90;99.90;;;1.25;100.00;101639.56;5012115;28;20044;-85
2022/12/05 07:48:54;;;;;;;168.18;41.17;;;3.00;99.90;;;1.20;100.00;101641.28;5019951;28;20139;-84
2022/12/05 07:51:25;;;;;;;184.93;48.45;;;2.90;99.90;;;1.25;100.00;101643.91;5029925;28;20036;-84
2022/12/05 07:53:51;;;;;;;180.50;46.50;;;3.00;99.90;;;1.30;100.00;101643.09;5007777;28;20385;-84
2022/12/05 07:56:17;;;;;;;201.57;49.85;;;3.00;99.90;;;1.35;100.00;101633.59;5007369;28;20113;-84
2022/12/05 07:58:46;;;;;;;199.23;49.33;;;3.00;99.90;;;1.39;100.00;101637.94;5010771;28;20025;-85
2022/12/05 08:01:19;;;;;;;194.98;48.45;;;3.00;99.90;;;1.36;100.00;101637.03;5018763;28;20040;-83
2022/12/05 08:03:48;;;;;;;190.98;44.45;;;3.10;99.90;;;1.32;100.00;101637.88;5022076;28;20025;-84
2022/12/05 08:06:18;;;;;;;216.50;47.78;;;3.00;99.90;;;1.34;100.00;101638.75;4997869;28;20068;-85
2022/12/05 08:08:51;;;;;;;196.75;48.70;;;3.10;99.90;;;1.40;100.00;101639.69;5022458;28;20040;-83
2022/12/05 08:11:35;;;;;;;196.10;49.17;;;3.10;99.90;;;1.38;100.00;101649.19;4997881;28;20426;-85
2022/12/05 08:14:04;;;;;;;196.55;50.22;;;3.10;99.90;;;1.40;100.00;101642.28;5009671;28;20497;-83
2022/12/05 08:16:34;;;;;;;201.63;52.33;;;3.10;99.90;;;1.51;100.00;101651.84;5010699;28;20029;-85
2022/12/05 08:19:05;;;;;;;200.40;48.88;;;3.10;99.90;;;1.47;100.00;101652.66;5009586;28;20738;-83
2022/12/05 08:21:32;;;;;;;206.50;50.13;;;3.20;99.90;;;1.49;100.00;101646.66;5014058;28;20040;-83
2022/12/05 08:24:03;;;;;;;150.13;35.13;;;3.10;99.90;;;1.25;100.00;101657.72;5012269;28;20029;-84
2022/12/05 08:26:31;;;;;;;201.75;48.97;;;3.00;99.90;;;1.29;100.00;101658.63;5010212;28;20071;-84
2022/12/05 08:29:29;;;;;;;217.68;49.60;;;3.00;99.90;;;1.33;100.00;101656.06;5011705;28;20163;-84
2022/12/05 08:31:54;;;;;;;179.38;42.88;;;3.10;99.90;;;1.32;100.00;101656.94;4995486;28;20089;-83
2022/12/05 08:34:27;;;;;;;184.48;42.97;;;3.00;99.90;;;1.33;100.00;101656.06;5034267;28;20107;-84
2022/12/05 08:36:52;;;;;;;228.13;50.53;;;3.10;99.90;;;1.42;100.00;101658.69;5034420;28;20104;-83
2022/12/05 08:39:19;;;;;;;231.43;51.15;;;3.10;99.90;;;1.39;100.00;101665.63;5013619;28;20117;-85
2022/12/05 08:41:47;;;;;;;218.43;50.03;;;3.10;99.90;;;1.39;100.00;101663.88;5009157;28;20109;-84
2022/12/05 08:44:21;;;;;;;257.77;51.35;;;3.10;99.90;;;1.43;100.00;101668.25;5007375;28;20036;-82
2022/12/05 08:46:49;;;;;;;275.58;50.90;;;3.10;99.90;;;1.43;100.00;101668.25;5011588;28;20021;-86
2022/12/05 08:49:15;;;;;;;235.60;49.53;;;3.10;99.90;;;1.43;100.00;101668.25;5009599;28;20083;-83
2022/12/05 08:51:49;;;;;;;248.60;53.08;;;3.20;99.90;;;1.54;100.00;101673.50;5010119;28;20419;-83
2022/12/05 08:54:15;;;;;;;248.13;49.20;;;3.20;99.90;;;1.52;100.00;101675.22;5011190;28;20025;-83
2022/12/05 08:56:41;;;;;;;246.10;51.60;;;3.20;99.90;;;1.47;100.00;101669.13;4996842;28;20026;-83
2022/12/05 08:59:07;;;;;;;247.05;52.80;;;3.20;99.90;;;1.55;100.00;101674.34;5011920;28;20021;-83
2022/12/05 09:01:41;;;;;;;236.63;50.92;;;3.20;99.90;;;1.61;100.00;101671.81;5009269;28;20026;-83
2022/12/05 09:04:08;;;;;;;227.80;49.85;;;3.20;99.90;;;1.60;100.00;101672.69;4995964;28;20515;-84
2022/12/05 09:06:35;;;;;;;213.23;49.25;;;3.30;99.90;;;1.63;100.00;101675.28;5007198;28;20030;-84
2022/12/05 09:09:10;;;;;;;218.50;47.40;;;3.20;99.90;;;1.61;100.00;101669.19;4995132;28;20046;-83
2022/12/05 09:11:50;;;;;;;207.30;45.33;;;3.20;99.90;;;1.47;100.00;101676.94;5018829;28;20076;-85
2022/12/05 09:14:19;;;;;;;235.18;49.45;;;;;;;1.48;100.00;101670.00;5021439;28;20112;-85
2022/12/05 09:16:55;;;;;;;207.40;45.38;;;3.20;99.90;;;1.48;100.00;101675.19;5026032;28;20033;-84
2022/12/05 09:19:22;;;;;;;206.27;45.17;;;3.20;99.90;;;1.47;100.00;101681.22;5003070;28;20395;-84
2022/12/05 09:21:56;;;;;;;194.60;47.63;;;3.20;99.90;;;1.57;100.00;101670.91;4997917;28;20034;-86
2022/12/05 09:24:26;;;;;;;195.00;48.08;;;3.20;99.90;;;1.66;100.00;101675.28;5028606;28;20036;-84
2022/12/05 09:27:01;;;;;;;222.00;55.03;;;3.30;99.90;;;1.73;100.00;101666.69;5017668;28;20575;-84
2022/12/05 09:29:28;;;;;;;210.32;51.40;;;3.30;99.90;;;1.73;100.00;101664.09;5019527;28;20041;-84
2022/12/05 09:32:04;;;;;;;190.93;44.28;;;3.40;99.90;;;1.86;100.00;101662.41;5024953;28;20032;-84
2022/12/05 09:34:30;;;;;;;207.63;53.50;;;3.40;99.90;;;1.71;100.00;101650.22;5012582;28;20524;-85
2022/12/05 09:37:04;;;;;;;182.20;47.38;;;3.40;99.90;;;1.82;100.00;101651.13;5000100;28;20052;-84
2022/12/05 09:39:30;;;;;;;86.07;24.63;;;;;;;1.62;100.00;101652.75;4993657;28;20068;-84
2022/12/05 09:42:39;;;;;;;163.43;41.45;;;3.40;99.90;;;1.67;100.00;101651.06;5040234;28;20030;-85
2022/12/05 09:45:24;;;;;;;145.93;40.45;;;3.40;99.90;;;1.64;100.00;101640.66;5028850;28;20044;-84
2022/12/05 09:48:10;;;;;;;114.45;32.42;;;3.40;99.90;;;1.62;100.00;101645.84;5029981;28;20049;-83
2022/12/05 09:50:56;;;;;;;129.93;33.40;;;3.30;99.90;;;1.64;100.00;101640.66;5035157;28;20032;-84
2022/12/05 09:53:40;;;;;;;126.32;36.67;;;3.30;99.90;;;1.63;100.00;101644.97;4998343;28;20022;-83
2022/12/05 09:56:40;;;;;;;85.13;22.17;;;3.30;99.90;;;1.61;100.00;101645.84;5019805;28;20702;-83
2022/12/05 09:59:15;;;;;;;127.80;36.03;;;3.40;99.90;;;1.75;100.00;101646.78;5007094;28;20036;-83
2022/12/05 10:02:42;;;;;;;102.67;30.67;;;3.40;99.90;;;1.89;100.00;101638.19;5024599;28;20076;-83
2022/12/05 10:05:28;;;;;;;110.53;34.55;;;3.50;99.90;;;1.93;100.00;101634.72;4990394;28;20277;-83
2022/12/05 10:08:17;;;;;;;121.85;33.92;;;3.40;99.90;;;1.95;100.00;101633.00;5023783;28;20181;-82
2022/12/05 10:11:20;;;;;;;121.82;34.40;;;3.60;99.90;;;1.98;100.00;101636.47;5007231;28;20029;-82
2022/12/05 10:14:11;;;;;;;117.63;34.35;;;3.60;99.90;;;2.00;100.00;101633.88;5007374;28;20030;-82
2022/12/05 10:16:54;;;;;;;106.05;31.40;;;3.60;99.90;;;1.93;100.00;101632.13;5002280;28;20037;-82
2022/12/05 10:19:47;;;;;;;88.97;25.85;;;3.60;99.90;;;1.90;100.00;101627.81;5014584;28;20029;-82
2022/12/05 10:22:31;;;;;;;96.00;29.38;;;3.50;99.90;;;1.92;100.00;101628.66;5014428;28;20025;-81
2022/12/05 10:25:09;;;;;;;81.00;27.30;;;3.50;99.90;;;1.93;100.00;101632.13;5029507;28;20037;-82
2022/12/05 10:27:50;;;;;;;81.72;26.80;;;3.60;99.90;;;1.97;100.00;101628.69;5010574;28;20034;-82
2022/12/05 10:30:30;;;;;;;75.25;25.27;;;3.60;99.90;;;2.05;100.00;101638.25;4998472;28;20049;-84
2022/12/05 10:33:27;;;;;;;82.47;28.02;;;3.60;99.90;;;2.03;100.00;101632.16;5007664;28;20083;-83
2022/12/05 10:35:55;;;;;;;72.82;25.83;;;3.60;99.90;;;2.08;100.00;101632.19;5025976;28;20068;-82
2022/12/05 10:38:31;;;;;;;71.93;24.92;;;3.70;99.90;;;2.09;100.00;101631.31;5006057;28;20095;-82
2022/12/05 10:41:10;;;;;;;57.72;21.73;;;3.60;99.90;;;2.03;100.00;101628.69;5024892;28;20039;-82
2022/12/05 10:43:48;;;;;;;80.18;30.15;;;3.70;99.90;;;2.12;100.00;101623.53;5007109;28;20033;-82